Jijel, Jijel Ferhat Abbas Airport (DAAV)

NameJijel Ferhat Abbas Airport
CityJijel
CountryAlgeria
ICAODAAV
IATAGJL
Altitude11 m
CoordinatesGoogle Map
Live Air TrafficLiveATC.net
METARDAAV 251700Z 15003KT 9999 SCT020 SCT030 BKN090 21/16 Q1007
2020-04-25 17:00:00 Wind: Southeast (150°) 1.54 m/s - Visibility: > 10000 m - Temperature: 21 °C - Dew point: 16 °C - Humidity: 73.2% - Pressure: 1007 hPa
Statistics

The table below shows the detailed information of all flights to/from Jijel, Jijel Ferhat Abbas Airport (DAAV).